Time;durP1;ratioP1;P1;durP2;ratioP2;P2;SDS_P1;SDS_P2;PMS_P1;PMS_P2;Temp;Humidity;BMP_temperature;BMP_pressure;BME280_temperature;BME280_humidity;BME280_pressure;Samples;Min_cycle;Max_cycle;Signal;HPM_P1;HPM_P2
2021/01/29 00:03:04;;;;;;;212.90;39.58;;;;;;;10.89;72.18;99883.81;5109901;27;20351;-79
2021/01/29 00:05:38;;;;;;;173.63;37.40;;;;;;;10.93;71.89;99882.75;5103120;28;20028;-78
2021/01/29 00:08:05;;;;;;;395.98;55.63;;;;;;;10.90;72.14;99869.63;5109203;27;20119;-78
2021/01/29 00:10:32;;;;;;;190.48;35.95;;;;;;;10.91;72.20;99866.91;5100270;28;20024;-78
2021/01/29 00:12:58;;;;;;;170.63;39.22;;;;;;;10.92;72.22;99860.72;5103770;28;20035;-79
2021/01/29 00:15:25;;;;;;;160.70;33.28;;;;;;;10.94;72.40;99861.53;5106754;28;20024;-78
2021/01/29 00:17:51;;;;;;;135.50;35.45;;;;;;;10.94;72.01;99848.28;5104335;28;20024;-78
2021/01/29 00:20:21;;;;;;;111.88;33.65;;;;;;;10.97;72.13;99844.63;5099683;28;20115;-78
2021/01/29 00:22:48;;;;;;;170.48;37.55;;;;;;;10.95;72.26;99836.75;5107356;28;20024;-78
2021/01/29 00:25:20;;;;;;;141.40;36.10;;;;;;;10.98;72.41;99831.31;5099389;28;20024;-78
2021/01/29 00:27:46;;;;;;;138.68;36.15;;;;;;;10.96;72.08;99822.56;5098384;28;20028;-78
2021/01/29 00:30:16;;;;;;;148.88;36.33;;;;;;;10.97;72.54;99823.44;5104042;28;20027;-79
2021/01/29 00:32:44;;;;;;;130.25;36.78;;;;;;;11.00;72.40;99812.69;5104921;28;20024;-79
2021/01/29 00:35:11;;;;;;;161.18;40.40;;;;;;;11.01;72.37;99809.13;5101009;28;20030;-79
2021/01/29 00:37:38;;;;;;;137.27;34.47;;;;;;;11.04;72.21;99808.16;5107941;27;20379;-76
2021/01/29 00:40:06;;;;;;;137.45;38.30;;;;;;;11.04;72.32;99803.72;5097460;28;20052;-79
2021/01/29 00:42:33;;;;;;;121.05;35.75;;;;;;;11.09;72.29;99795.56;5101588;28;20036;-79
2021/01/29 00:44:59;;;;;;;127.32;36.90;;;;;;;11.10;72.08;99789.34;5104322;28;20036;-79
2021/01/29 00:47:26;;;;;;;127.55;35.22;;;;;;;11.04;72.41;99787.81;5106560;28;20016;-78
2021/01/29 00:49:52;;;;;;;137.70;40.78;;;;;;;11.11;72.49;99783.13;5099996;27;20024;-76
2021/01/29 00:52:19;;;;;;;165.90;42.28;;;;;;;11.04;73.01;99777.22;5106277;28;20031;-79
2021/01/29 00:54:45;;;;;;;129.48;39.65;;;;;;;11.11;72.71;99775.19;5106675;28;20016;-76
2021/01/29 00:57:12;;;;;;;181.43;46.63;;;;;;;11.06;73.12;99763.91;5097899;28;20032;-77
2021/01/29 00:59:39;;;;;;;137.00;41.65;;;;;;;11.11;72.51;99757.47;5106404;28;20027;-77
2021/01/29 01:02:06;;;;;;;139.70;41.75;;;;;;;11.09;73.00;99747.88;5105583;28;20102;-77
2021/01/29 01:04:32;;;;;;;129.65;40.28;;;;;;;11.10;73.14;99744.28;5100160;28;20040;-77
2021/01/29 01:06:58;;;;;;;162.80;44.88;;;;;;;11.14;73.06;99738.81;5104464;28;20035;-77
2021/01/29 01:09:25;;;;;;;144.32;42.92;;;;;;;11.14;72.78;99735.28;5104744;28;20031;-77
2021/01/29 01:11:51;;;;;;;137.98;43.13;;;;;;;11.16;72.64;99725.50;5105575;28;20031;-77
2021/01/29 01:14:18;;;;;;;143.20;41.35;;;;;;;11.19;72.75;99721.84;5090070;28;20028;-77
2021/01/29 01:16:45;;;;;;;177.90;49.58;;;;;;;11.14;73.10;99714.97;5084799;28;20379;-77
2021/01/29 01:19:11;;;;;;;180.18;51.58;;;;;;;11.15;73.06;99705.19;5080253;28;20107;-77
2021/01/29 01:21:38;;;;;;;180.32;48.20;;;;;;;11.19;72.81;99705.94;5086222;28;20028;-77
2021/01/29 01:24:05;;;;;;;166.93;47.80;;;;;;;11.16;73.19;99705.16;5092907;28;20067;-78
2021/01/29 01:26:32;;;;;;;161.23;45.53;;;;;;;11.20;72.99;99700.56;5091674;28;20474;-78
2021/01/29 01:28:58;;;;;;;143.52;47.38;;;;;;;11.20;73.12;99681.16;5084132;28;20040;-78
2021/01/29 01:31:24;;;;;;;180.00;50.72;;;;;;;11.17;73.25;99687.47;5087633;28;20438;-78
2021/01/29 01:33:51;;;;;;;196.23;52.00;;;;;;;11.20;73.01;99684.66;5087152;28;20039;-77
2021/01/29 01:36:18;;;;;;;172.57;48.30;;;;;;;11.17;73.56;99674.19;5091692;28;20028;-78
2021/01/29 01:38:45;;;;;;;163.65;47.47;;;;;;;11.24;73.31;99673.03;5088581;28;20479;-78
2021/01/29 01:41:11;;;;;;;192.80;52.53;;;;;;;11.24;73.18;99665.06;5087693;28;20028;-78
2021/01/29 01:43:38;;;;;;;149.32;46.03;;;;;;;11.27;73.21;99658.78;5084837;28;20059;-78
2021/01/29 01:51:41;;;;;;;167.35;47.33;;;;;;;11.36;73.38;99628.34;5079325;27;20867;-78
2021/01/29 01:54:45;;;;;;;152.52;47.95;;;;;;;11.43;73.00;99625.38;5068272;28;20772;-78
2021/01/29 01:57:18;;;;;;;161.07;44.88;;;;;;;11.39;73.21;99617.59;5056749;28;20837;-78
2021/01/29 01:59:53;;;;;;;164.27;49.60;;;;;;;11.35;73.79;99608.91;5059192;28;20476;-78
2021/01/29 02:02:25;;;;;;;158.65;48.13;;;;;;;11.41;73.35;99606.00;5049465;28;20107;-78
2021/01/29 02:04:53;;;;;;;166.45;47.05;;;;;;;11.42;73.39;99598.91;5040194;28;20041;-78
2021/01/29 02:07:43;;;;;;;138.38;45.58;;;;;;;11.49;72.89;99590.63;5049754;28;20061;-78
2021/01/29 02:10:10;;;;;;;141.88;45.15;;;;;;;11.46;73.31;99589.88;5049391;28;20469;-79
2021/01/29 02:12:36;;;;;;;168.05;46.35;;;;;;;11.42;73.23;99577.69;5049413;28;20021;-78
2021/01/29 02:15:09;;;;;;;171.60;47.97;;;;;;;11.47;73.06;99573.06;5048962;28;20029;-78
2021/01/29 02:26:37;;;;;;;147.13;45.70;;;;;;;11.55;73.33;99538.22;5107709;27;20381;-81
2021/01/29 02:32:25;;;;;;;197.48;52.97;;;;;;;11.62;73.17;99518.44;5077317;27;20403;-82
2021/01/29 02:40:45;;;;;;;146.15;46.05;;;;;;;11.52;73.05;99495.94;5069410;27;20412;-83
2021/01/29 02:57:46;;;;;;;163.75;49.95;;;;;;;11.52;73.36;99443.72;5035773;28;20975;-82
2021/01/29 03:03:11;;;;;;;129.52;43.75;;;;;;;11.53;73.26;99424.25;5134277;27;20401;-81
2021/01/29 03:05:43;;;;;;;108.10;39.00;;;;;;;11.51;72.99;99419.94;5130466;27;20031;-82
2021/01/29 03:08:22;;;;;;;;;;;;;;;11.62;72.73;99405.22;5128327;28;20462;-81
2021/01/29 03:14:30;;;;;;;103.50;36.85;;;;;;;11.46;73.71;99386.53;5068390;27;20435;-81
2021/01/29 03:17:06;;;;;;;101.80;36.25;;;;;;;11.45;73.57;99368.03;5049221;28;20037;-82
2021/01/29 03:19:40;;;;;;;90.35;33.90;;;;;;;11.42;74.07;99368.19;5042775;28;20137;-82
2021/01/29 03:22:12;;;;;;;79.75;32.03;;;;;;;11.42;74.11;99368.19;5025158;28;20115;-82
2021/01/29 03:24:41;;;;;;;;;;;;;;;11.49;73.97;99361.66;5038720;28;20030;-82
2021/01/29 03:27:14;;;;;;;77.13;30.60;;;;;;;11.47;73.73;99363.53;5039458;28;19988;-83
2021/01/29 03:29:45;;;;;;;77.35;32.40;;;;;;;11.43;74.06;99352.19;5027643;28;20464;-82
2021/01/29 03:32:16;;;;;;;80.47;31.70;;;;;;;11.44;73.91;99348.63;5027761;28;20125;-82
2021/01/29 03:34:59;;;;;;;78.68;31.50;;;;;;;11.47;73.96;99339.66;5035483;28;20033;-82
2021/01/29 03:37:36;;;;;;;70.43;27.92;;;;;;;11.50;73.73;99339.50;5036099;28;20840;-81
2021/01/29 03:40:05;;;;;;;80.78;29.50;;;;;;;11.46;74.09;99327.31;5031137;28;20092;-82
2021/01/29 03:42:54;;;;;;;66.88;27.35;;;;;;;11.57;73.14;99327.66;5027616;28;20026;-82
2021/01/29 03:48:27;;;;;;;62.45;24.65;;;;;;;11.59;73.57;99317.84;5079549;28;20453;-81
2021/01/29 03:56:55;;;;;;;47.92;21.48;;;;;;;11.61;73.93;99300.06;5097376;27;20387;-78
2021/01/29 03:59:49;;;;;;;66.40;25.65;;;;;;;11.63;74.45;99292.88;5090054;28;20435;-78
2021/01/29 04:02:25;;;;;;;50.25;21.20;;;;;;;11.60;74.35;99293.03;5097415;28;20028;-78
2021/01/29 04:05:13;;;;;;;63.42;23.70;;;;;;;11.59;74.30;99291.31;5076451;28;20034;-78
2021/01/29 04:07:50;;;;;;;53.60;21.60;;;;;;;11.70;73.89;99287.25;5090156;28;20059;-78
2021/01/29 04:10:19;;;;;;;52.15;20.38;;;;;;;11.65;74.21;99291.00;5089753;28;20090;-78
2021/01/29 04:15:40;;;;;;;44.47;17.52;;;;;;;11.78;73.66;99290.41;5110707;27;20412;-78
2021/01/29 04:18:44;;;;;;;29.67;14.80;;;;;;;11.81;74.15;99274.31;5095932;28;20031;-79
2021/01/29 04:21:20;;;;;;;27.73;13.32;;;;;;;11.74;74.23;99286.16;5090000;28;20478;-78
2021/01/29 04:26:35;;;;;;;19.38;12.30;;;;;;;11.73;74.86;99277.38;5069481;27;20361;-78
2021/01/29 04:29:07;;;;;;;22.65;12.18;;;;;;;11.62;74.78;99282.34;5066602;28;20364;-78
2021/01/29 04:31:36;;;;;;;17.58;11.27;;;;;;;11.58;75.16;99273.69;5049636;28;20061;-78
2021/01/29 04:34:12;;;;;;;16.20;10.80;;;;;;;11.58;74.66;99278.97;5049716;28;20063;-78
2021/01/29 04:36:41;;;;;;;14.55;9.25;;;;;;;11.60;74.71;99271.81;5049863;28;20044;-78
2021/01/29 04:39:16;;;;;;;13.23;8.73;;;;;;;11.66;74.36;99275.94;5049701;28;20037;-78
2021/01/29 04:42:01;;;;;;;11.52;7.00;;;;;;;11.60;74.16;99281.56;5050002;28;20064;-78
2021/01/29 04:47:27;;;;;;;7.75;5.25;;;;;;;11.54;74.14;99265.94;5111088;27;20129;-77
2021/01/29 04:50:23;;;;;;;9.35;4.72;;;;;;;11.63;73.78;99269.00;5082620;28;20401;-78
2021/01/29 04:58:35;;;;;;;5.15;2.17;;;;;;;11.36;74.08;99279.16;5070205;27;20429;-78
2021/01/29 05:01:35;;;;;;;6.20;1.70;;;;;;;11.32;74.07;99265.19;5030184;28;20117;-78
2021/01/29 05:16:12;;;;;;;9.80;1.88;;;;;;;11.33;73.33;99261.63;5102776;27;20375;-78
2021/01/29 05:19:08;;;;;;;9.02;1.50;;;;;;;11.30;73.28;99263.56;5090446;28;20082;-80
2021/01/29 05:22:01;;;;;;;5.70;2.10;;;;;;;11.35;73.12;99255.38;5069781;28;20052;-78
2021/01/29 05:25:07;;;;;;;5.72;1.77;;;;;;;11.11;74.01;99260.94;5070244;28;20513;-78
2021/01/29 05:27:52;;;;;;;7.55;2.80;;;;;;;11.07;74.25;99259.38;5057414;28;20079;-78
2021/01/29 05:30:46;;;;;;;6.53;1.98;;;;;;;11.08;74.24;99269.88;5069447;28;20033;-78
2021/01/29 05:33:36;;;;;;;11.35;2.63;;;;;;;10.88;74.61;99277.91;5069885;28;20096;-78
2021/01/29 05:45:00;;;;;;;16.58;2.78;;;;;;;11.03;73.94;99277.22;5110351;27;20888;-79
2021/01/29 05:48:06;;;;;;;11.90;2.58;;;;;;;11.08;73.54;99280.50;5110376;28;20429;-78
2021/01/29 05:50:56;;;;;;;7.30;2.83;;;;;;;10.97;74.08;99274.84;5110462;28;20040;-78
2021/01/29 05:53:49;;;;;;;13.13;2.38;;;;;;;10.88;74.24;99283.19;5088812;28;20110;-78
2021/01/29 05:56:31;;;;;;;12.48;2.40;;;;;;;10.66;75.27;99300.94;5110224;28;20047;-79
2021/01/29 06:10:41;;;;;;;12.25;3.60;;;;;;;10.94;74.32;99281.16;5058753;27;20955;-78
2021/01/29 06:27:27;;;;;;;9.70;1.88;;;;;;;10.93;74.06;99278.53;5108967;27;20379;-79
2021/01/29 06:33:00;;;;;;;9.45;2.67;;;;;;;10.97;74.23;99282.78;5108417;27;20347;-79
2021/01/29 06:38:55;;;;;;;15.45;3.60;;;;;;;10.90;74.94;99290.16;5053406;27;20948;-78
2021/01/29 06:44:43;;;;;;;10.70;4.13;;;;;;;11.08;74.61;99290.22;5104374;27;20359;-78
2021/01/29 06:53:25;;;;;;;14.80;3.42;;;;;;;10.82;75.93;99306.41;5090847;27;20407;-85
2021/01/29 06:56:08;;;;;;;16.38;3.72;;;;;;;10.91;75.56;99307.78;5090480;28;20032;-85
2021/01/29 06:58:59;;;;;;;19.45;4.85;;;;;;;10.92;75.71;99322.75;5091753;28;20070;-85
2021/01/29 07:04:59;;;;;;;18.65;3.90;;;;;;;10.92;75.81;99322.75;5111888;27;20335;-87
2021/01/29 07:07:43;;;;;;;13.40;2.63;;;;;;;11.09;75.46;99308.72;5111772;28;20028;-87
2021/01/29 07:10:49;;;;;;;13.23;2.88;;;;;;;11.25;74.97;99303.56;5111294;28;20092;-86
2021/01/29 07:13:39;;;;;;;24.20;3.85;;;;;;;11.08;75.61;99316.72;5111208;28;20039;-85
2021/01/29 07:19:29;;;;;;;16.00;4.20;;;;;;;11.04;75.09;99336.34;5111695;27;20355;-85
2021/01/29 07:25:08;;;;;;;19.52;4.05;;;;;;;10.91;75.46;99339.56;5152549;27;20353;-87
2021/01/29 07:28:00;;;;;;;27.52;5.65;;;;;;;11.11;74.99;99343.09;5132272;28;20035;-86
2021/01/29 07:33:33;;;;;;;28.70;4.38;;;;;;;10.90;75.18;99376.75;5091512;27;21000;-85
2021/01/29 07:36:28;;;;;;;27.45;5.15;;;;;;;11.09;74.56;99360.84;5071364;28;20233;-83
2021/01/29 07:42:31;;;;;;;24.38;5.07;;;;;;;10.87;74.25;99367.16;5111612;27;20374;-86
2021/01/29 07:48:27;;;;;;;39.60;8.55;;;;;;;10.94;73.82;99389.78;5091038;27;20832;-87
2021/01/29 07:51:10;;;;;;;35.17;5.97;;;;;;;10.99;73.37;99393.09;5052772;28;20060;-86
2021/01/29 07:53:58;;;;;;;41.85;5.32;;;;;;;10.66;74.13;99412.19;5050908;28;20033;-86
2021/01/29 07:57:04;;;;;;;40.53;6.43;;;;;;;10.87;73.22;99414.84;5050608;28;20502;-86
2021/01/29 07:59:56;;;;;;;34.50;5.30;;;;;;;10.95;73.20;99410.06;5050524;28;20034;-85
2021/01/29 08:02:48;;;;;;;30.42;6.38;;;;;;;10.84;73.14;99462.66;5050880;28;20069;-84
2021/01/29 08:05:37;;;;;;;94.50;34.47;;;;;;;10.95;72.80;99418.03;5051186;28;20029;-85
2021/01/29 08:08:11;;;;;;;42.38;9.00;;;;;;;11.00;72.67;99425.75;5051076;28;20026;-86
2021/01/29 08:10:41;;;;;;;43.47;6.38;;;;;;;10.89;72.58;99417.41;5051115;28;20060;-85
2021/01/29 08:16:33;;;;;;;49.65;8.23;;;;;;;10.82;72.58;99443.34;5092300;27;20413;-86
2021/01/29 08:22:17;;;;;;;40.97;6.28;;;;;;;10.67;73.42;99455.44;5057628;27;20753;-78
2021/01/29 08:25:07;;;;;;;50.85;9.07;;;;;;;10.73;73.14;99462.25;5053728;28;20069;-78
2021/01/29 08:33:46;;;;;;;48.38;7.60;;;;;;;10.73;72.37;99476.38;5110429;27;20872;-78
2021/01/29 08:36:39;;;;;;;44.63;7.15;;;;;;;10.63;72.50;99465.31;5109923;28;20110;-78
2021/01/29 08:42:24;;;;;;;46.88;7.03;;;;;;;10.89;71.82;99470.41;5074705;27;20907;-79
2021/01/29 08:48:01;;;;;;;47.35;6.93;;;;;;;10.69;71.96;99464.16;5053741;27;1043126;-79
2021/01/29 08:51:04;;;;;;;46.15;7.32;;;;;;;10.79;71.55;99469.94;5059193;28;20396;-80
2021/01/29 08:57:04;;;;;;;51.80;6.78;;;;;;;10.65;71.48;99474.06;5076194;28;20479;-79
2021/01/29 08:59:40;;;;;;;41.78;6.53;;;;;;;10.44;71.49;99490.84;5055956;28;20033;-79
2021/01/29 09:02:31;;;;;;;39.85;6.18;;;;;;;10.53;71.20;99490.47;5051517;28;20483;-80
2021/01/29 09:05:12;;;;;;;89.10;24.05;;;;;;;10.54;71.50;99496.63;5055348;28;20570;-77
2021/01/29 09:07:41;;;;;;;60.90;7.32;;;;;;;10.66;70.96;99496.94;5054226;28;20029;-80
2021/01/29 09:10:21;;;;;;;49.92;8.43;;;;;;;10.72;71.07;99497.66;5052840;28;20059;-79
2021/01/29 09:12:55;;;;;;;44.03;5.95;;;;;;;10.70;71.06;99491.53;5052468;28;20029;-80
2021/01/29 09:15:31;;;;;;;41.85;8.27;;;;;;;10.68;70.89;99505.72;5048805;28;20128;-79
2021/01/29 09:18:03;;;;;;;45.08;8.02;;;;;;;10.72;71.03;99508.25;5048006;28;20025;-80
2021/01/29 09:20:45;;;;;;;39.40;6.55;;;;;;;10.87;70.66;99504.94;5050939;28;20048;-79
2021/01/29 09:23:27;;;;;;;36.65;7.10;;;;;;;10.79;70.74;99502.63;5047940;28;20455;-79
2021/01/29 09:28:39;;;;;;;42.65;6.22;;;;;;;10.85;70.49;99522.66;5065239;27;20410;-80
2021/01/29 09:31:10;;;;;;;41.78;7.82;;;;;;;10.84;70.52;99520.94;5045713;28;20048;-81
2021/01/29 09:33:44;;;;;;;48.92;6.30;;;;;;;10.89;70.62;99513.69;5046984;28;20037;-79
2021/01/29 09:39:11;;;;;;;35.28;5.70;;;;;;;11.14;70.00;99525.84;5063906;28;20478;-79
2021/01/29 09:41:47;;;;;;;36.88;6.15;;;;;;;11.04;70.52;99521.88;5046670;28;20047;-79
2021/01/29 09:47:21;;;;;;;39.67;7.10;;;;;;;10.97;70.21;99538.06;5055166;28;20411;-79
2021/01/29 09:49:48;;;;;;;41.23;6.23;;;;;;;11.11;69.83;99555.16;5040587;28;20112;-79
2021/01/29 09:52:25;;;;;;;44.90;7.20;;;;;;;11.08;70.01;99540.25;5041052;28;20025;-79
2021/01/29 10:00:32;;;;;;;40.80;6.10;;;;;;;11.24;69.74;99566.97;5046909;27;20419;-78
2021/01/29 10:03:25;;;;;;;40.22;6.55;;;;;;;11.15;70.16;99562.03;5039520;28;20035;-79
2021/01/29 10:05:59;;;;;;;32.75;6.72;;;;;;;11.33;69.46;99555.09;5038589;28;20033;-80
2021/01/29 10:08:47;;;;;;;40.00;7.13;;;;;;;11.38;69.28;99565.50;5027494;28;20117;-78
2021/01/29 10:11:39;;;;;;;31.45;8.85;;;;;;;11.49;69.30;99552.63;5034044;28;20033;-79
2021/01/29 10:14:33;;;;;;;26.67;4.70;;;;;;;11.36;69.23;99564.72;5031974;28;20094;-81
2021/01/29 10:17:15;;;;;;;34.50;4.85;;;;;;;11.41;68.87;99552.94;5029888;28;20350;-81
2021/01/29 10:19:50;;;;;;;37.85;6.40;;;;;;;11.43;68.90;99574.13;5034033;28;20065;-79
2021/01/29 10:31:05;;;;;;;26.77;6.05;;;;;;;11.44;68.41;99558.13;5056339;28;20381;-78
2021/01/29 10:33:34;;;;;;;26.25;4.45;;;;;;;11.44;68.49;99554.59;5041977;28;20969;-80
2021/01/29 10:38:59;;;;;;;33.55;4.60;;;;;;;11.44;68.00;99557.25;5069572;27;20154;-79
2021/01/29 10:41:39;;;;;;;31.83;5.65;;;;;;;11.57;67.56;99569.06;5040611;28;20130;-79
2021/01/29 10:44:27;;;;;;;36.55;6.82;;;;;;;11.60;67.63;99562.75;5038821;28;20037;-80
2021/01/29 10:49:57;;;;;;;31.40;4.97;;;;;;;11.17;68.81;99578.75;5078082;27;20416;-81
2021/01/29 10:53:04;;;;;;;30.13;4.60;;;;;;;11.45;68.14;99569.59;5062107;28;20040;-80
2021/01/29 10:55:35;;;;;;;33.60;4.78;;;;;;;11.14;68.87;99568.28;5059858;28;20033;-81
2021/01/29 10:58:30;;;;;;;31.87;6.30;;;;;;;11.34;68.00;99570.09;5053885;28;20454;-81
2021/01/29 11:01:02;;;;;;;29.85;5.60;;;;;;;11.43;67.88;99577.63;5051572;28;20033;-81
2021/01/29 11:04:06;;;;;;;31.50;6.60;;;;;;;11.45;67.79;99580.19;5055890;28;20028;-80
2021/01/29 11:06:54;;;;;;;27.77;4.13;;;;;;;11.42;67.67;99580.34;5056151;28;20036;-81
2021/01/29 11:09:42;;;;;;;28.90;6.47;;;;;;;11.51;67.64;99589.69;5057164;28;20492;-80
2021/01/29 11:12:32;;;;;;;31.98;4.88;;;;;;;11.31;68.27;99581.69;5060512;28;20021;-80
2021/01/29 11:15:22;;;;;;;38.70;7.18;;;;;;;11.33;67.88;99590.41;5067961;28;20037;-81
2021/01/29 11:20:35;;;;;;;38.05;4.78;;;;;;;11.61;67.37;99586.56;5055320;28;20806;-80
2021/01/29 11:32:14;;;;;;;23.88;5.18;;;;;;;11.97;66.28;99593.84;5070876;28;20436;-81
2021/01/29 11:34:43;;;;;;;26.77;4.47;;;;;;;11.98;65.66;99600.84;5062794;28;20045;-80
2021/01/29 11:37:18;;;;;;;27.83;5.05;;;;;;;12.13;65.56;99598.44;5064497;28;20151;-80
2021/01/29 11:39:58;;;;;;;21.10;4.30;;;;;;;12.26;65.35;99596.94;5059622;28;20507;-81
2021/01/29 11:42:34;;;;;;;22.55;4.57;;;;;;;12.21;65.41;99628.16;5048440;28;20022;-82
2021/01/29 11:45:09;;;;;;;23.85;3.95;;;;;;;12.31;64.83;99602.00;5042715;28;20090;-81
2021/01/29 11:47:58;;;;;;;23.52;4.70;;;;;;;12.24;64.57;99606.75;5047398;28;20112;-80
2021/01/29 11:56:04;;;;;;;25.13;6.05;;;;;;;12.33;64.58;99605.44;5073037;27;20904;-79
2021/01/29 11:58:47;;;;;;;28.45;4.95;;;;;;;12.14;64.08;99621.41;5066967;28;20036;-80
2021/01/29 12:01:23;;;;;;;28.88;4.13;;;;;;;12.05;64.49;99601.44;5047687;28;20486;-80
2021/01/29 12:04:05;;;;;;;24.17;4.13;;;;;;;12.18;64.85;99591.09;5048070;28;20383;-80
2021/01/29 12:06:38;;;;;;;18.45;3.67;;;;;;;12.27;64.01;99596.00;5046237;28;20056;-80
2021/01/29 12:12:19;;;;;;;21.48;4.45;;;;;;;12.04;65.91;99593.56;5078484;28;20404;-81
2021/01/29 12:17:28;;;;;;;33.50;4.55;;;;;;;11.87;66.37;99595.13;5064580;27;20418;-81
2021/01/29 12:20:08;;;;;;;23.35;4.68;;;;;;;11.61;67.30;99586.56;5059854;28;20059;-81
2021/01/29 12:23:05;;;;;;;18.67;3.78;;;;;;;11.78;66.57;99635.38;5047207;28;20037;-82
2021/01/29 12:26:11;;;;;;;21.30;4.20;;;;;;;11.55;67.24;99607.19;5047691;28;20033;-82
2021/01/29 12:28:58;;;;;;;32.88;4.75;;;;;;;11.60;67.05;99606.06;5047644;28;20033;-82
2021/01/29 12:34:28;;;;;;;29.73;4.63;;;;;;;11.49;67.81;99609.19;5044652;27;20414;-81
2021/01/29 12:37:07;;;;;;;27.63;4.80;;;;;;;11.98;66.67;99603.50;5039349;28;20034;-81
2021/01/29 12:39:40;;;;;;;22.73;3.60;;;;;;;12.04;66.70;99591.75;5028981;28;20022;-81
2021/01/29 12:42:16;;;;;;;28.55;5.50;;;;;;;12.03;66.48;99589.19;5027761;28;20041;-81
2021/01/29 12:45:04;;;;;;;35.60;4.65;;;;;;;11.73;67.56;99632.06;5023840;28;20362;-81
2021/01/29 12:47:46;;;;;;;25.95;4.15;;;;;;;11.61;67.31;99601.63;5025963;28;20057;-82
2021/01/29 12:58:42;;;;;;;21.85;4.07;;;;;;;11.64;68.40;99596.19;5072009;27;20398;-81
2021/01/29 13:01:12;;;;;;;33.15;4.93;;;;;;;11.58;68.41;99592.00;5050432;28;20091;-81
2021/01/29 13:03:51;;;;;;;28.80;4.97;;;;;;;11.72;67.84;99598.50;5043233;28;20435;-81
2021/01/29 13:06:41;;;;;;;24.35;4.05;;;;;;;11.76;67.77;99584.16;5047351;28;20392;-82
2021/01/29 13:12:24;;;;;;;25.40;4.95;;;;;;;12.01;66.86;99575.94;5057835;27;20415;-81
2021/01/29 13:15:18;;;;;;;24.88;3.88;;;;;;;11.96;66.03;99588.56;5032175;28;20061;-81
2021/01/29 13:17:47;;;;;;;23.50;3.42;;;;;;;11.82;66.45;99594.47;5033718;28;20037;-81
2021/01/29 13:22:55;;;;;;;28.77;4.50;;;;;;;12.08;65.53;99597.78;5071895;27;20410;-82
2021/01/29 13:25:27;;;;;;;29.10;4.15;;;;;;;12.07;65.04;99577.47;5063967;28;20087;-81
2021/01/29 13:28:14;;;;;;;17.70;3.78;;;;;;;12.27;65.56;99574.75;5065520;28;20036;-81
2021/01/29 13:30:42;;;;;;;30.13;3.92;;;;;;;12.20;65.67;99573.31;5055099;28;20032;-80
2021/01/29 13:36:05;;;;;;;21.27;3.83;;;;;;;12.33;64.73;99562.97;5066277;27;20959;-80
2021/01/29 13:38:37;;;;;;;23.48;3.83;;;;;;;12.26;64.36;99573.03;5056368;28;20033;-80
2021/01/29 13:41:15;;;;;;;23.50;5.00;;;;;;;12.19;64.43;99565.44;5047300;28;20162;-81
2021/01/29 13:43:42;;;;;;;35.75;11.77;;;;;;;12.35;64.46;99570.84;5045497;28;20044;-81
2021/01/29 13:51:55;;;;;;;26.58;4.32;;;;;;;12.46;63.72;99576.50;5068488;28;20458;-79
2021/01/29 14:03:02;;;;;;;28.95;3.75;;;;;;;12.19;64.35;99571.59;5069366;27;20398;-81
2021/01/29 14:05:29;;;;;;;18.42;4.18;;;;;;;12.25;63.99;99599.63;5064413;28;20051;-81
2021/01/29 14:07:59;;;;;;;21.23;3.90;;;;;;;12.02;64.19;99590.09;5067570;28;20116;-81
2021/01/29 14:10:28;;;;;;;27.15;4.35;;;;;;;12.18;63.33;99572.50;5055090;28;20025;-81
2021/01/29 14:13:34;;;;;;;26.38;3.63;;;;;;;12.08;62.98;99566.78;5046673;28;20095;-81
2021/01/29 14:16:26;;;;;;;20.08;4.65;;;;;;;12.25;63.42;99576.63;5048951;28;20032;-81
2021/01/29 14:19:03;;;;;;;19.97;4.13;;;;;;;12.22;62.87;99584.72;5048971;28;20057;-81
2021/01/29 14:24:32;;;;;;;23.05;4.28;;;;;;;12.33;62.53;99583.38;5104299;27;20378;-82
2021/01/29 14:27:09;;;;;;;21.67;4.47;;;;;;;12.19;62.97;99584.88;5107188;28;20039;-82
2021/01/29 14:30:04;;;;;;;24.17;3.85;;;;;;;12.44;62.40;99597.84;5104202;28;20044;-82
2021/01/29 14:35:18;;;;;;;23.35;3.63;;;;;;;12.08;63.32;99603.09;5068380;28;20475;-81
2021/01/29 14:38:13;;;;;;;21.67;4.50;;;;;;;12.01;63.14;99631.69;5066451;28;20036;-83
2021/01/29 14:46:19;;;;;;;21.85;3.67;;;;;;;12.17;63.61;99600.00;5073673;27;20428;-82
2021/01/29 14:51:56;;;;;;;19.92;3.72;;;;;;;12.13;63.51;99611.69;5076972;28;20441;-82
2021/01/29 14:54:25;;;;;;;21.55;4.10;;;;;;;11.91;63.84;99639.22;5065283;28;20029;-81
2021/01/29 14:57:03;;;;;;;15.68;3.13;;;;;;;11.90;64.04;99640.13;5067224;28;20163;-82
2021/01/29 14:59:36;;;;;;;19.25;3.70;;;;;;;12.10;62.66;99614.47;5069033;28;20052;-81
2021/01/29 15:02:09;;;;;;;27.08;3.60;;;;;;;12.11;63.74;99616.22;5051585;28;20573;-81
2021/01/29 15:04:37;;;;;;;16.33;2.67;;;;;;;12.04;63.63;99612.16;5060371;28;20055;-82
2021/01/29 15:12:25;;;;;;;21.48;3.47;;;;;;;12.01;63.33;99625.53;5072563;28;20417;-80
2021/01/29 15:14:54;;;;;;;14.30;4.32;;;;;;;11.92;63.94;99619.66;5069526;28;20033;-81
2021/01/29 15:17:38;;;;;;;30.77;6.60;;;;;;;12.14;62.98;99626.72;5067914;28;20036;-81
2021/01/29 15:23:26;;;;;;;20.30;4.43;;;;;;;11.91;63.15;99622.41;5070526;28;20481;-81
2021/01/29 15:28:43;;;;;;;20.55;4.25;;;;;;;11.78;63.62;99638.88;5035273;28;20427;-82
2021/01/29 15:34:07;;;;;;;21.63;4.40;;;;;;;11.81;63.71;99637.88;5076349;28;20204;-82
2021/01/29 15:36:48;;;;;;;22.60;3.83;;;;;;;11.72;63.63;99636.50;5055484;28;20416;-80
2021/01/29 15:42:04;;;;;;;22.98;4.13;;;;;;;11.89;63.28;99648.16;5073490;28;20448;-82
2021/01/29 15:47:45;;;;;;;22.02;3.90;;;;;;;11.88;63.49;99663.22;5078352;27;20400;-81
2021/01/29 15:50:51;;;;;;;10.80;2.97;;;;;;;11.75;63.80;99667.34;5056065;28;20394;-80
2021/01/29 15:53:55;;;;;;;23.05;3.65;;;;;;;11.88;63.33;99657.91;5049740;28;20028;-82
2021/01/29 15:59:17;;;;;;;22.40;4.30;;;;;;;11.69;63.70;99647.25;5080718;27;20899;-79
2021/01/29 16:01:49;;;;;;;15.38;3.88;;;;;;;11.73;63.68;99653.28;5033530;28;20511;-78
2021/01/29 16:07:23;;;;;;;19.42;4.13;;;;;;;11.73;63.67;99669.22;5039842;28;20478;-81
2021/01/29 16:18:12;;;;;;;19.08;3.40;;;;;;;11.82;63.27;99682.06;5064088;28;20429;-80
2021/01/29 16:23:25;;;;;;;17.52;3.47;;;;;;;11.75;63.33;99667.34;5063775;27;20987;-85
2021/01/29 16:26:03;;;;;;;19.60;3.47;;;;;;;11.79;63.03;99680.41;5062863;28;20112;-81
2021/01/29 16:28:36;;;;;;;14.50;3.45;;;;;;;11.62;63.08;99690.88;5064640;28;20061;-81
2021/01/29 16:31:05;;;;;;;20.38;3.60;;;;;;;11.48;63.60;99680.88;5060117;28;20100;-81
2021/01/29 16:33:32;;;;;;;15.40;3.83;;;;;;;11.62;62.99;99694.41;5067828;28;20056;-81
2021/01/29 16:36:09;;;;;;;18.08;4.13;;;;;;;11.79;62.31;99712.25;5065429;28;20028;-81
2021/01/29 16:38:39;;;;;;;20.45;3.30;;;;;;;11.63;63.00;99712.03;5065939;28;20071;-82
2021/01/29 16:41:16;;;;;;;18.80;2.97;;;;;;;11.88;62.60;99704.84;5066377;28;20361;-81
2021/01/29 16:43:42;;;;;;;19.90;3.33;;;;;;;11.34;63.84;99715.94;5060008;28;20029;-82
2021/01/29 16:52:19;;;;;;;12.77;3.10;;;;;;;11.81;62.83;99720.13;5187843;27;20737;-79
2021/01/29 16:54:47;;;;;;;10.88;2.80;;;;;;;11.87;62.86;99714.56;5172158;27;20023;-79
2021/01/29 16:57:19;;;;;;;19.10;4.97;;;;;;;11.69;62.56;99725.97;5164720;27;20023;-80
2021/01/29 16:59:46;;;;;;;10.63;2.63;;;;;;;11.63;63.18;99732.41;5168081;27;20031;-80
2021/01/29 17:02:18;;;;;;;15.70;3.55;;;;;;;11.81;62.15;99736.06;5164291;27;20035;-79
2021/01/29 17:04:49;;;;;;;18.90;3.45;;;;;;;11.83;62.26;99744.84;5158617;27;20015;-79
2021/01/29 17:07:34;;;;;;;24.60;3.55;;;;;;;11.92;62.22;99727.66;5156523;27;20038;-81
2021/01/29 17:10:26;;;;;;;19.63;3.95;;;;;;;11.78;62.23;99733.56;5155265;27;20026;-78
2021/01/29 17:13:00;;;;;;;14.70;3.65;;;;;;;11.76;62.38;99738.06;5133086;27;20057;-78
2021/01/29 17:15:30;;;;;;;11.00;2.90;;;;;;;11.81;62.41;99736.94;5164839;27;20023;-78
2021/01/29 17:18:00;;;;;;;19.10;3.17;;;;;;;11.96;62.03;99734.56;5147650;27;20019;-80
2021/01/29 17:20:28;;;;;;;10.38;3.20;;;;;;;11.70;62.62;99727.69;5150284;27;20023;-79
2021/01/29 17:23:04;;;;;;;13.60;3.35;;;;;;;11.73;62.72;99749.66;5151020;27;20023;-79